sensor_id;sensor_type;location;lat;lon;timestamp;temperature;humidity
12817;DHT22;6473;51.552;6.716;2022-12-26T00:00:38;10.50;99.90
12817;DHT22;6473;51.552;6.716;2022-12-26T00:03:12;11.70;99.90
12817;DHT22;6473;51.552;6.716;2022-12-26T00:05:41;10.50;99.90
12817;DHT22;6473;51.552;6.716;2022-12-26T00:08:08;10.40;99.90
12817;DHT22;6473;51.552;6.716;2022-12-26T00:10:35;10.50;99.90
12817;DHT22;6473;51.552;6.716;2022-12-26T00:13:02;10.60;99.90
12817;DHT22;6473;51.552;6.716;2022-12-26T00:15:29;10.60;99.90
12817;DHT22;6473;51.552;6.716;2022-12-26T00:17:56;10.60;99.90
12817;DHT22;6473;51.552;6.716;2022-12-26T00:20:23;11.10;99.90
12817;DHT22;6473;51.552;6.716;2022-12-26T00:22:52;11.40;99.90
12817;DHT22;6473;51.552;6.716;2022-12-26T00:25:19;10.50;99.90
12817;DHT22;6473;51.552;6.716;2022-12-26T00:27:47;11.40;99.90
12817;DHT22;6473;51.552;6.716;2022-12-26T00:30:14;10.60;99.90
12817;DHT22;6473;51.552;6.716;2022-12-26T00:32:41;11.60;99.90
12817;DHT22;6473;51.552;6.716;2022-12-26T00:35:08;10.60;99.90
12817;DHT22;6473;51.552;6.716;2022-12-26T00:37:35;10.50;99.90
12817;DHT22;6473;51.552;6.716;2022-12-26T00:40:05;10.60;99.90
12817;DHT22;6473;51.552;6.716;2022-12-26T00:45:00;10.50;99.90
12817;DHT22;6473;51.552;6.716;2022-12-26T00:47:26;10.50;99.90
12817;DHT22;6473;51.552;6.716;2022-12-26T00:49:53;10.40;99.90
12817;DHT22;6473;51.552;6.716;2022-12-26T00:52:20;10.40;99.90
12817;DHT22;6473;51.552;6.716;2022-12-26T00:54:49;11.70;99.90
12817;DHT22;6473;51.552;6.716;2022-12-26T00:57:17;10.50;99.90
12817;DHT22;6473;51.552;6.716;2022-12-26T00:59:44;10.30;99.90
12817;DHT22;6473;51.552;6.716;2022-12-26T01:02:11;11.60;99.90
12817;DHT22;6473;51.552;6.716;2022-12-26T01:04:52;10.40;99.90
12817;DHT22;6473;51.552;6.716;2022-12-26T01:07:19;11.70;99.90
12817;DHT22;6473;51.552;6.716;2022-12-26T01:09:46;11.30;99.90
12817;DHT22;6473;51.552;6.716;2022-12-26T01:12:13;10.40;99.90
12817;DHT22;6473;51.552;6.716;2022-12-26T01:14:43;10.30;99.90
12817;DHT22;6473;51.552;6.716;2022-12-26T01:17:10;12.30;99.90
12817;DHT22;6473;51.552;6.716;2022-12-26T01:19:37;12.20;99.90
12817;DHT22;6473;51.552;6.716;2022-12-26T01:22:09;10.20;99.90
12817;DHT22;6473;51.552;6.716;2022-12-26T01:24:41;10.70;99.90
12817;DHT22;6473;51.552;6.716;2022-12-26T01:27:08;10.30;99.90
12817;DHT22;6473;51.552;6.716;2022-12-26T01:29:36;11.70;99.90
12817;DHT22;6473;51.552;6.716;2022-12-26T01:32:04;10.30;99.90
12817;DHT22;6473;51.552;6.716;2022-12-26T01:34:31;10.30;99.90
12817;DHT22;6473;51.552;6.716;2022-12-26T01:36:58;13.10;99.90
12817;DHT22;6473;51.552;6.716;2022-12-26T01:39:25;9.00;99.90
12817;DHT22;6473;51.552;6.716;2022-12-26T01:41:53;10.20;99.90
12817;DHT22;6473;51.552;6.716;2022-12-26T01:44:53;10.20;99.90
12817;DHT22;6473;51.552;6.716;2022-12-26T01:47:34;10.20;99.90
12817;DHT22;6473;51.552;6.716;2022-12-26T01:50:04;10.20;99.90
12817;DHT22;6473;51.552;6.716;2022-12-26T01:52:35;10.10;99.90
12817;DHT22;6473;51.552;6.716;2022-12-26T01:55:05;12.20;99.90
12817;DHT22;6473;51.552;6.716;2022-12-26T01:57:38;10.10;99.90
12817;DHT22;6473;51.552;6.716;2022-12-26T02:00:07;10.10;99.90
12817;DHT22;6473;51.552;6.716;2022-12-26T02:02:43;10.10;99.90
12817;DHT22;6473;51.552;6.716;2022-12-26T02:05:28;10.10;99.90
12817;DHT22;6473;51.552;6.716;2022-12-26T02:08:04;12.60;99.90
12817;DHT22;6473;51.552;6.716;2022-12-26T02:10:38;10.10;99.90
12817;DHT22;6473;51.552;6.716;2022-12-26T02:13:10;11.20;99.90
12817;DHT22;6473;51.552;6.716;2022-12-26T02:15:38;10.00;99.90
12817;DHT22;6473;51.552;6.716;2022-12-26T02:18:07;10.50;99.90
12817;DHT22;6473;51.552;6.716;2022-12-26T02:20:40;10.10;99.90
12817;DHT22;6473;51.552;6.716;2022-12-26T02:35:32;9.90;99.90
12817;DHT22;6473;51.552;6.716;2022-12-26T02:38:08;9.90;99.90
12817;DHT22;6473;51.552;6.716;2022-12-26T02:40:46;9.90;99.90
12817;DHT22;6473;51.552;6.716;2022-12-26T02:43:21;10.60;99.90
12817;DHT22;6473;51.552;6.716;2022-12-26T02:46:00;11.70;99.90
12817;DHT22;6473;51.552;6.716;2022-12-26T02:48:54;10.00;99.90
12817;DHT22;6473;51.552;6.716;2022-12-26T02:51:35;9.90;99.90
12817;DHT22;6473;51.552;6.716;2022-12-26T02:54:26;10.70;99.90
12817;DHT22;6473;51.552;6.716;2022-12-26T02:57:18;9.90;99.90
12817;DHT22;6473;51.552;6.716;2022-12-26T03:00:13;10.80;99.90
12817;DHT22;6473;51.552;6.716;2022-12-26T03:03:01;9.90;99.90
12817;DHT22;6473;51.552;6.716;2022-12-26T03:05:53;9.80;99.90
12817;DHT22;6473;51.552;6.716;2022-12-26T03:08:42;9.90;99.90
12817;DHT22;6473;51.552;6.716;2022-12-26T03:11:31;13.00;99.90
12817;DHT22;6473;51.552;6.716;2022-12-26T03:14:20;9.90;99.90
12817;DHT22;6473;51.552;6.716;2022-12-26T03:16:58;11.50;99.90
12817;DHT22;6473;51.552;6.716;2022-12-26T03:19:46;10.80;99.90
12817;DHT22;6473;51.552;6.716;2022-12-26T03:22:32;9.80;99.90
12817;DHT22;6473;51.552;6.716;2022-12-26T03:25:04;9.90;99.90
12817;DHT22;6473;51.552;6.716;2022-12-26T03:27:49;9.80;99.90
12817;DHT22;6473;51.552;6.716;2022-12-26T03:30:17;9.90;99.90
12817;DHT22;6473;51.552;6.716;2022-12-26T03:33:02;9.90;99.90
12817;DHT22;6473;51.552;6.716;2022-12-26T03:35:32;9.80;99.90
12817;DHT22;6473;51.552;6.716;2022-12-26T03:38:08;9.80;99.90
12817;DHT22;6473;51.552;6.716;2022-12-26T03:40:50;9.80;99.90
12817;DHT22;6473;51.552;6.716;2022-12-26T03:43:47;10.30;99.90
12817;DHT22;6473;51.552;6.716;2022-12-26T03:46:46;9.80;99.90
12817;DHT22;6473;51.552;6.716;2022-12-26T03:49:39;10.40;99.90
12817;DHT22;6473;51.552;6.716;2022-12-26T03:52:28;9.70;99.90
12817;DHT22;6473;51.552;6.716;2022-12-26T03:55:20;9.70;99.90
12817;DHT22;6473;51.552;6.716;2022-12-26T03:58:11;9.60;99.90
12817;DHT22;6473;51.552;6.716;2022-12-26T04:00:59;9.50;99.90
12817;DHT22;6473;51.552;6.716;2022-12-26T04:03:46;9.50;99.90
12817;DHT22;6473;51.552;6.716;2022-12-26T04:06:39;9.50;99.90
12817;DHT22;6473;51.552;6.716;2022-12-26T04:09:29;11.20;99.90
12817;DHT22;6473;51.552;6.716;2022-12-26T04:12:21;9.40;99.90
12817;DHT22;6473;51.552;6.716;2022-12-26T04:15:14;9.30;99.90
12817;DHT22;6473;51.552;6.716;2022-12-26T04:18:04;9.30;99.90
12817;DHT22;6473;51.552;6.716;2022-12-26T04:21:01;9.40;99.90
12817;DHT22;6473;51.552;6.716;2022-12-26T04:23:33;9.30;99.90
12817;DHT22;6473;51.552;6.716;2022-12-26T04:26:25;9.40;99.90
12817;DHT22;6473;51.552;6.716;2022-12-26T04:29:14;9.40;99.90
12817;DHT22;6473;51.552;6.716;2022-12-26T04:32:03;9.40;99.90
12817;DHT22;6473;51.552;6.716;2022-12-26T04:34:56;9.40;99.90
12817;DHT22;6473;51.552;6.716;2022-12-26T04:37:46;11.10;99.90
12817;DHT22;6473;51.552;6.716;2022-12-26T04:40:38;9.30;99.90
12817;DHT22;6473;51.552;6.716;2022-12-26T04:43:26;12.00;99.90
12817;DHT22;6473;51.552;6.716;2022-12-26T04:46:13;9.30;99.90
12817;DHT22;6473;51.552;6.716;2022-12-26T04:48:42;9.30;99.90
12817;DHT22;6473;51.552;6.716;2022-12-26T04:51:28;9.30;99.90
12817;DHT22;6473;51.552;6.716;2022-12-26T04:53:55;9.40;99.90
12817;DHT22;6473;51.552;6.716;2022-12-26T04:56:23;9.30;99.90
12817;DHT22;6473;51.552;6.716;2022-12-26T04:58:53;9.30;99.90
12817;DHT22;6473;51.552;6.716;2022-12-26T05:01:21;11.10;99.90
12817;DHT22;6473;51.552;6.716;2022-12-26T05:04:07;9.40;99.90
12817;DHT22;6473;51.552;6.716;2022-12-26T05:06:52;10.20;99.90
12817;DHT22;6473;51.552;6.716;2022-12-26T05:09:36;9.40;99.90
12817;DHT22;6473;51.552;6.716;2022-12-26T05:12:06;9.40;99.90
12817;DHT22;6473;51.552;6.716;2022-12-26T05:14:33;9.40;99.90
12817;DHT22;6473;51.552;6.716;2022-12-26T05:17:03;9.40;99.90
12817;DHT22;6473;51.552;6.716;2022-12-26T05:19:47;9.30;99.90
12817;DHT22;6473;51.552;6.716;2022-12-26T05:22:33;9.40;99.90
12817;DHT22;6473;51.552;6.716;2022-12-26T05:25:23;8.30;99.90
12817;DHT22;6473;51.552;6.716;2022-12-26T05:28:18;9.30;99.90
12817;DHT22;6473;51.552;6.716;2022-12-26T05:31:03;9.30;99.90
12817;DHT22;6473;51.552;6.716;2022-12-26T05:33:38;9.30;99.90
12817;DHT22;6473;51.552;6.716;2022-12-26T05:36:27;9.30;99.90
12817;DHT22;6473;51.552;6.716;2022-12-26T05:38:59;9.20;99.90
12817;DHT22;6473;51.552;6.716;2022-12-26T05:41:32;9.20;99.90
12817;DHT22;6473;51.552;6.716;2022-12-26T05:44:00;9.10;99.90
12817;DHT22;6473;51.552;6.716;2022-12-26T05:46:27;9.10;99.90
12817;DHT22;6473;51.552;6.716;2022-12-26T05:49:05;9.20;99.90
12817;DHT22;6473;51.552;6.716;2022-12-26T05:51:32;9.10;99.90
12817;DHT22;6473;51.552;6.716;2022-12-26T05:54:01;9.80;99.90
12817;DHT22;6473;51.552;6.716;2022-12-26T05:56:32;9.10;99.90
12817;DHT22;6473;51.552;6.716;2022-12-26T05:59:00;10.50;99.90
12817;DHT22;6473;51.552;6.716;2022-12-26T06:01:28;9.10;99.90
12817;DHT22;6473;51.552;6.716;2022-12-26T06:03:59;9.00;99.90
12817;DHT22;6473;51.552;6.716;2022-12-26T06:08:57;9.10;99.90
12817;DHT22;6473;51.552;6.716;2022-12-26T06:11:27;9.00;99.90
12817;DHT22;6473;51.552;6.716;2022-12-26T06:13:54;9.00;99.90
12817;DHT22;6473;51.552;6.716;2022-12-26T06:16:22;9.00;99.90
12817;DHT22;6473;51.552;6.716;2022-12-26T06:18:50;9.00;99.90
12817;DHT22;6473;51.552;6.716;2022-12-26T06:21:19;8.90;99.90
12817;DHT22;6473;51.552;6.716;2022-12-26T06:23:48;8.90;99.90
12817;DHT22;6473;51.552;6.716;2022-12-26T06:26:16;8.90;99.90
12817;DHT22;6473;51.552;6.716;2022-12-26T06:28:43;8.90;99.90
12817;DHT22;6473;51.552;6.716;2022-12-26T06:31:13;11.20;99.90
12817;DHT22;6473;51.552;6.716;2022-12-26T06:33:42;8.90;99.90
12817;DHT22;6473;51.552;6.716;2022-12-26T06:36:12;8.90;99.90
12817;DHT22;6473;51.552;6.716;2022-12-26T06:38:44;11.40;99.90
12817;DHT22;6473;51.552;6.716;2022-12-26T06:41:13;8.90;99.90
12817;DHT22;6473;51.552;6.716;2022-12-26T06:43:41;11.70;99.90
12817;DHT22;6473;51.552;6.716;2022-12-26T06:46:11;8.90;99.90
12817;DHT22;6473;51.552;6.716;2022-12-26T06:48:41;8.90;99.90
12817;DHT22;6473;51.552;6.716;2022-12-26T06:51:13;8.80;99.90
12817;DHT22;6473;51.552;6.716;2022-12-26T06:53:40;8.90;99.90
12817;DHT22;6473;51.552;6.716;2022-12-26T06:56:11;9.50;99.90
12817;DHT22;6473;51.552;6.716;2022-12-26T06:58:38;8.90;99.90
12817;DHT22;6473;51.552;6.716;2022-12-26T07:01:06;8.90;99.90
12817;DHT22;6473;51.552;6.716;2022-12-26T07:03:35;9.00;99.90
12817;DHT22;6473;51.552;6.716;2022-12-26T07:06:03;10.60;99.90
12817;DHT22;6473;51.552;6.716;2022-12-26T07:08:31;9.00;99.90
12817;DHT22;6473;51.552;6.716;2022-12-26T07:10:58;9.10;99.90
12817;DHT22;6473;51.552;6.716;2022-12-26T07:13:29;9.10;99.90
12817;DHT22;6473;51.552;6.716;2022-12-26T07:15:58;9.10;99.90
12817;DHT22;6473;51.552;6.716;2022-12-26T07:18:25;9.20;99.90
12817;DHT22;6473;51.552;6.716;2022-12-26T07:20:53;9.20;99.90
12817;DHT22;6473;51.552;6.716;2022-12-26T07:23:21;8.10;99.90
12817;DHT22;6473;51.552;6.716;2022-12-26T07:25:52;9.20;99.90
12817;DHT22;6473;51.552;6.716;2022-12-26T07:28:18;9.20;99.90
12817;DHT22;6473;51.552;6.716;2022-12-26T07:30:51;9.20;99.90
12817;DHT22;6473;51.552;6.716;2022-12-26T07:33:19;9.20;99.90
12817;DHT22;6473;51.552;6.716;2022-12-26T07:35:46;9.30;99.90
12817;DHT22;6473;51.552;6.716;2022-12-26T07:38:14;11.70;99.90
12817;DHT22;6473;51.552;6.716;2022-12-26T07:40:41;10.40;99.90
12817;DHT22;6473;51.552;6.716;2022-12-26T07:43:08;9.40;99.90
12817;DHT22;6473;51.552;6.716;2022-12-26T07:45:36;9.40;99.90
12817;DHT22;6473;51.552;6.716;2022-12-26T07:48:04;9.60;99.90
12817;DHT22;6473;51.552;6.716;2022-12-26T07:50:32;9.50;99.90
12817;DHT22;6473;51.552;6.716;2022-12-26T07:52:58;9.50;99.90
12817;DHT22;6473;51.552;6.716;2022-12-26T07:55:25;9.50;99.90
12817;DHT22;6473;51.552;6.716;2022-12-26T07:57:53;9.60;99.90
12817;DHT22;6473;51.552;6.716;2022-12-26T08:00:20;9.60;99.90
12817;DHT22;6473;51.552;6.716;2022-12-26T08:02:47;9.60;99.90
12817;DHT22;6473;51.552;6.716;2022-12-26T08:05:16;9.70;99.90
12817;DHT22;6473;51.552;6.716;2022-12-26T08:07:45;9.70;99.90
12817;DHT22;6473;51.552;6.716;2022-12-26T08:10:12;9.70;99.90
12817;DHT22;6473;51.552;6.716;2022-12-26T08:12:39;9.70;99.90
12817;DHT22;6473;51.552;6.716;2022-12-26T08:15:07;9.70;99.90
12817;DHT22;6473;51.552;6.716;2022-12-26T08:17:35;9.70;99.90
12817;DHT22;6473;51.552;6.716;2022-12-26T08:20:03;9.70;99.90
12817;DHT22;6473;51.552;6.716;2022-12-26T08:22:31;9.70;99.90
12817;DHT22;6473;51.552;6.716;2022-12-26T08:27:25;9.70;99.90
12817;DHT22;6473;51.552;6.716;2022-12-26T08:29:52;9.70;99.90
12817;DHT22;6473;51.552;6.716;2022-12-26T08:32:19;9.60;99.90
12817;DHT22;6473;51.552;6.716;2022-12-26T08:34:45;9.60;99.90
12817;DHT22;6473;51.552;6.716;2022-12-26T08:37:12;9.60;99.90
12817;DHT22;6473;51.552;6.716;2022-12-26T08:39:41;9.60;99.90
12817;DHT22;6473;51.552;6.716;2022-12-26T08:42:07;9.60;99.90
12817;DHT22;6473;51.552;6.716;2022-12-26T08:44:34;9.60;99.90
12817;DHT22;6473;51.552;6.716;2022-12-26T08:47:01;9.70;99.90
12817;DHT22;6473;51.552;6.716;2022-12-26T08:49:28;9.60;99.90
12817;DHT22;6473;51.552;6.716;2022-12-26T08:51:55;9.60;99.90
12817;DHT22;6473;51.552;6.716;2022-12-26T08:54:22;9.60;99.90
12817;DHT22;6473;51.552;6.716;2022-12-26T08:56:50;9.60;99.90
12817;DHT22;6473;51.552;6.716;2022-12-26T08:59:17;9.60;99.90
12817;DHT22;6473;51.552;6.716;2022-12-26T09:01:44;9.60;99.90
12817;DHT22;6473;51.552;6.716;2022-12-26T09:04:11;9.80;99.90
12817;DHT22;6473;51.552;6.716;2022-12-26T09:06:38;9.80;99.90
12817;DHT22;6473;51.552;6.716;2022-12-26T09:09:07;9.90;99.90
12817;DHT22;6473;51.552;6.716;2022-12-26T09:11:36;9.90;99.90
12817;DHT22;6473;51.552;6.716;2022-12-26T09:14:06;10.00;99.90
12817;DHT22;6473;51.552;6.716;2022-12-26T09:16:34;10.00;99.90
12817;DHT22;6473;51.552;6.716;2022-12-26T09:19:02;10.10;99.90
12817;DHT22;6473;51.552;6.716;2022-12-26T09:21:30;10.10;99.90
12817;DHT22;6473;51.552;6.716;2022-12-26T09:23:57;10.00;99.90
12817;DHT22;6473;51.552;6.716;2022-12-26T09:26:24;10.20;99.90
12817;DHT22;6473;51.552;6.716;2022-12-26T09:28:52;10.30;99.90
12817;DHT22;6473;51.552;6.716;2022-12-26T09:31:22;10.30;99.90
12817;DHT22;6473;51.552;6.716;2022-12-26T09:33:50;10.30;99.90
12817;DHT22;6473;51.552;6.716;2022-12-26T09:36:20;10.40;99.90
12817;DHT22;6473;51.552;6.716;2022-12-26T09:38:48;10.50;99.90
12817;DHT22;6473;51.552;6.716;2022-12-26T09:41:29;10.70;99.90
12817;DHT22;6473;51.552;6.716;2022-12-26T09:44:02;10.80;99.90
12817;DHT22;6473;51.552;6.716;2022-12-26T09:46:35;10.90;99.90
12817;DHT22;6473;51.552;6.716;2022-12-26T09:49:10;11.10;99.90
12817;DHT22;6473;51.552;6.716;2022-12-26T09:51:40;11.30;99.90
12817;DHT22;6473;51.552;6.716;2022-12-26T09:54:18;11.20;99.90
12817;DHT22;6473;51.552;6.716;2022-12-26T09:56:49;11.10;99.90
12817;DHT22;6473;51.552;6.716;2022-12-26T09:59:18;11.10;99.90
12817;DHT22;6473;51.552;6.716;2022-12-26T10:01:50;11.20;99.90
12817;DHT22;6473;51.552;6.716;2022-12-26T10:04:21;11.20;99.90
12817;DHT22;6473;51.552;6.716;2022-12-26T10:06:55;11.20;99.90
12817;DHT22;6473;51.552;6.716;2022-12-26T10:09:45;11.20;99.90
12817;DHT22;6473;51.552;6.716;2022-12-26T10:12:28;11.00;99.90
12817;DHT22;6473;51.552;6.716;2022-12-26T10:15:05;11.00;99.90
12817;DHT22;6473;51.552;6.716;2022-12-26T10:17:39;11.10;99.90
12817;DHT22;6473;51.552;6.716;2022-12-26T10:20:17;10.90;99.90
12817;DHT22;6473;51.552;6.716;2022-12-26T10:23:13;10.90;99.90
12817;DHT22;6473;51.552;6.716;2022-12-26T10:25:47;10.90;99.90
12817;DHT22;6473;51.552;6.716;2022-12-26T10:28:18;11.10;99.90
12817;DHT22;6473;51.552;6.716;2022-12-26T10:30:50;11.10;99.90
12817;DHT22;6473;51.552;6.716;2022-12-26T10:33:29;11.20;99.90
12817;DHT22;6473;51.552;6.716;2022-12-26T10:35:59;11.20;99.90
12817;DHT22;6473;51.552;6.716;2022-12-26T10:38:29;11.20;99.90
12817;DHT22;6473;51.552;6.716;2022-12-26T10:41:02;11.00;99.90
12817;DHT22;6473;51.552;6.716;2022-12-26T10:43:33;11.00;99.90
12817;DHT22;6473;51.552;6.716;2022-12-26T10:46:29;10.90;99.90
12817;DHT22;6473;51.552;6.716;2022-12-26T10:49:00;10.90;99.90
12817;DHT22;6473;51.552;6.716;2022-12-26T10:51:26;10.90;99.90
12817;DHT22;6473;51.552;6.716;2022-12-26T10:53:54;10.90;99.90
12817;DHT22;6473;51.552;6.716;2022-12-26T10:56:22;10.90;99.90
12817;DHT22;6473;51.552;6.716;2022-12-26T10:58:59;11.00;99.90
12817;DHT22;6473;51.552;6.716;2022-12-26T11:01:31;11.00;99.90
12817;DHT22;6473;51.552;6.716;2022-12-26T11:04:02;11.00;99.90
12817;DHT22;6473;51.552;6.716;2022-12-26T11:06:32;11.00;99.90
12817;DHT22;6473;51.552;6.716;2022-12-26T11:08:59;11.10;99.90
12817;DHT22;6473;51.552;6.716;2022-12-26T11:11:27;11.10;99.90
12817;DHT22;6473;51.552;6.716;2022-12-26T11:14:28;11.10;99.90
12817;DHT22;6473;51.552;6.716;2022-12-26T11:16:57;11.10;99.90
12817;DHT22;6473;51.552;6.716;2022-12-26T11:19:27;11.10;99.90
12817;DHT22;6473;51.552;6.716;2022-12-26T11:22:23;11.10;99.90
12817;DHT22;6473;51.552;6.716;2022-12-26T11:25:13;11.20;99.90
12817;DHT22;6473;51.552;6.716;2022-12-26T11:27:42;11.00;99.90
12817;DHT22;6473;51.552;6.716;2022-12-26T11:30:18;11.00;99.90
12817;DHT22;6473;51.552;6.716;2022-12-26T11:32:48;11.00;99.90
12817;DHT22;6473;51.552;6.716;2022-12-26T11:35:21;11.00;99.90
12817;DHT22;6473;51.552;6.716;2022-12-26T11:37:51;11.10;99.90
12817;DHT22;6473;51.552;6.716;2022-12-26T11:40:22;11.20;99.90
12817;DHT22;6473;51.552;6.716;2022-12-26T11:42:53;11.20;99.90
12817;DHT22;6473;51.552;6.716;2022-12-26T11:45:22;11.20;99.90
12817;DHT22;6473;51.552;6.716;2022-12-26T11:47:50;11.40;99.90
12817;DHT22;6473;51.552;6.716;2022-12-26T11:50:23;11.40;99.90
12817;DHT22;6473;51.552;6.716;2022-12-26T11:52:53;11.40;99.90
12817;DHT22;6473;51.552;6.716;2022-12-26T11:55:31;11.40;99.90
12817;DHT22;6473;51.552;6.716;2022-12-26T11:58:01;11.40;99.90
12817;DHT22;6473;51.552;6.716;2022-12-26T12:00:32;11.30;99.90
12817;DHT22;6473;51.552;6.716;2022-12-26T12:02:59;11.20;99.90
12817;DHT22;6473;51.552;6.716;2022-12-26T12:05:38;11.20;99.90
12817;DHT22;6473;51.552;6.716;2022-12-26T12:08:26;11.10;99.90
12817;DHT22;6473;51.552;6.716;2022-12-26T12:11:15;10.60;99.90
12817;DHT22;6473;51.552;6.716;2022-12-26T12:14:00;10.00;99.90
12817;DHT22;6473;51.552;6.716;2022-12-26T12:16:40;9.90;99.90
12817;DHT22;6473;51.552;6.716;2022-12-26T12:19:28;9.30;99.90
12817;DHT22;6473;51.552;6.716;2022-12-26T12:22:25;9.30;99.90
12817;DHT22;6473;51.552;6.716;2022-12-26T12:25:15;9.10;99.90
12817;DHT22;6473;51.552;6.716;2022-12-26T12:27:47;9.00;99.90
12817;DHT22;6473;51.552;6.716;2022-12-26T12:30:19;9.00;99.90
12817;DHT22;6473;51.552;6.716;2022-12-26T12:33:14;9.10;99.90
12817;DHT22;6473;51.552;6.716;2022-12-26T12:35:56;9.10;99.90
12817;DHT22;6473;51.552;6.716;2022-12-26T12:38:30;9.10;99.90
12817;DHT22;6473;51.552;6.716;2022-12-26T12:41:06;9.20;99.90
12817;DHT22;6473;51.552;6.716;2022-12-26T12:43:42;9.40;99.90
12817;DHT22;6473;51.552;6.716;2022-12-26T12:46:16;9.40;99.90
12817;DHT22;6473;51.552;6.716;2022-12-26T12:48:58;9.30;99.90
12817;DHT22;6473;51.552;6.716;2022-12-26T13:05:21;9.30;99.90
12817;DHT22;6473;51.552;6.716;2022-12-26T13:07:54;9.30;99.90
12817;DHT22;6473;51.552;6.716;2022-12-26T13:10:27;9.20;99.90
12817;DHT22;6473;51.552;6.716;2022-12-26T13:12:56;9.00;99.90
12817;DHT22;6473;51.552;6.716;2022-12-26T13:15:30;8.90;99.90
12817;DHT22;6473;51.552;6.716;2022-12-26T13:18:02;8.80;99.90
12817;DHT22;6473;51.552;6.716;2022-12-26T13:20:36;8.70;99.90
12817;DHT22;6473;51.552;6.716;2022-12-26T13:23:08;8.60;99.90
12817;DHT22;6473;51.552;6.716;2022-12-26T13:26:03;8.60;99.90
12817;DHT22;6473;51.552;6.716;2022-12-26T13:28:35;8.60;99.90
12817;DHT22;6473;51.552;6.716;2022-12-26T13:31:04;8.60;99.90
12817;DHT22;6473;51.552;6.716;2022-12-26T13:33:32;8.60;99.90
12817;DHT22;6473;51.552;6.716;2022-12-26T13:36:04;8.70;99.90
12817;DHT22;6473;51.552;6.716;2022-12-26T13:41:46;8.70;99.90
12817;DHT22;6473;51.552;6.716;2022-12-26T13:44:31;8.50;99.90
12817;DHT22;6473;51.552;6.716;2022-12-26T13:46:59;8.40;99.90
12817;DHT22;6473;51.552;6.716;2022-12-26T13:49:29;8.30;99.90
12817;DHT22;6473;51.552;6.716;2022-12-26T13:52:30;8.40;99.90
12817;DHT22;6473;51.552;6.716;2022-12-26T13:55:19;8.30;99.90
12817;DHT22;6473;51.552;6.716;2022-12-26T13:58:10;8.30;99.90
12817;DHT22;6473;51.552;6.716;2022-12-26T14:00:43;8.30;99.90
12817;DHT22;6473;51.552;6.716;2022-12-26T14:06:35;8.10;99.90
12817;DHT22;6473;51.552;6.716;2022-12-26T14:09:20;8.00;99.90
12817;DHT22;6473;51.552;6.716;2022-12-26T14:12:03;8.00;99.90
12817;DHT22;6473;51.552;6.716;2022-12-26T14:14:43;8.00;99.90
12817;DHT22;6473;51.552;6.716;2022-12-26T14:17:19;8.00;99.90
12817;DHT22;6473;51.552;6.716;2022-12-26T14:19:57;7.90;99.90
12817;DHT22;6473;51.552;6.716;2022-12-26T14:22:35;7.90;99.90
12817;DHT22;6473;51.552;6.716;2022-12-26T14:25:17;7.80;99.90
12817;DHT22;6473;51.552;6.716;2022-12-26T14:27:51;7.80;99.90
12817;DHT22;6473;51.552;6.716;2022-12-26T14:30:27;7.70;99.90
12817;DHT22;6473;51.552;6.716;2022-12-26T14:33:17;7.70;99.90
12817;DHT22;6473;51.552;6.716;2022-12-26T14:35:55;7.70;99.90
12817;DHT22;6473;51.552;6.716;2022-12-26T14:38:29;7.70;99.90
12817;DHT22;6473;51.552;6.716;2022-12-26T14:41:03;7.70;99.90
12817;DHT22;6473;51.552;6.716;2022-12-26T14:43:34;7.70;99.90
12817;DHT22;6473;51.552;6.716;2022-12-26T14:46:01;7.70;99.90
12817;DHT22;6473;51.552;6.716;2022-12-26T14:48:49;7.70;99.90
12817;DHT22;6473;51.552;6.716;2022-12-26T14:51:38;7.70;99.90
12817;DHT22;6473;51.552;6.716;2022-12-26T14:54:34;7.70;99.90
12817;DHT22;6473;51.552;6.716;2022-12-26T15:00:31;7.50;99.90
12817;DHT22;6473;51.552;6.716;2022-12-26T15:06:43;7.50;99.90
12817;DHT22;6473;51.552;6.716;2022-12-26T15:12:26;7.40;99.90
12817;DHT22;6473;51.552;6.716;2022-12-26T15:15:10;7.30;99.90
12817;DHT22;6473;51.552;6.716;2022-12-26T15:17:48;7.20;99.90
12817;DHT22;6473;51.552;6.716;2022-12-26T15:20:43;7.10;99.90
12817;DHT22;6473;51.552;6.716;2022-12-26T15:23:55;7.10;99.90
12817;DHT22;6473;51.552;6.716;2022-12-26T15:26:51;7.00;99.90
12817;DHT22;6473;51.552;6.716;2022-12-26T15:29:50;6.90;99.90
12817;DHT22;6473;51.552;6.716;2022-12-26T15:32:27;6.90;99.90
12817;DHT22;6473;51.552;6.716;2022-12-26T15:35:04;6.80;99.90
12817;DHT22;6473;51.552;6.716;2022-12-26T15:37:48;6.70;99.90
12817;DHT22;6473;51.552;6.716;2022-12-26T15:40:22;6.70;99.90
12817;DHT22;6473;51.552;6.716;2022-12-26T15:43:08;6.60;99.90
12817;DHT22;6473;51.552;6.716;2022-12-26T15:45:46;6.50;99.90
12817;DHT22;6473;51.552;6.716;2022-12-26T15:48:26;6.40;99.90
12817;DHT22;6473;51.552;6.716;2022-12-26T15:50:58;6.30;99.90
12817;DHT22;6473;51.552;6.716;2022-12-26T15:53:45;6.30;99.90
12817;DHT22;6473;51.552;6.716;2022-12-26T16:00:01;6.20;99.90
12817;DHT22;6473;51.552;6.716;2022-12-26T16:02:44;6.10;99.90
12817;DHT22;6473;51.552;6.716;2022-12-26T16:05:46;6.00;99.90
12817;DHT22;6473;51.552;6.716;2022-12-26T16:11:16;5.90;99.90
12817;DHT22;6473;51.552;6.716;2022-12-26T16:13:53;5.90;99.90
12817;DHT22;6473;51.552;6.716;2022-12-26T16:16:25;5.90;99.90
12817;DHT22;6473;51.552;6.716;2022-12-26T16:18:54;5.00;99.90
12817;DHT22;6473;51.552;6.716;2022-12-26T16:21:24;5.90;99.90
12817;DHT22;6473;51.552;6.716;2022-12-26T16:24:10;5.90;99.90
12817;DHT22;6473;51.552;6.716;2022-12-26T16:26:40;6.00;99.90
12817;DHT22;6473;51.552;6.716;2022-12-26T16:29:12;5.90;99.90
12817;DHT22;6473;51.552;6.716;2022-12-26T16:31:40;5.80;99.90
12817;DHT22;6473;51.552;6.716;2022-12-26T16:34:14;5.80;99.90
12817;DHT22;6473;51.552;6.716;2022-12-26T16:36:42;6.60;99.90
12817;DHT22;6473;51.552;6.716;2022-12-26T16:41:58;5.60;99.90
12817;DHT22;6473;51.552;6.716;2022-12-26T16:44:35;5.50;99.90
12817;DHT22;6473;51.552;6.716;2022-12-26T16:47:05;5.50;99.90
12817;DHT22;6473;51.552;6.716;2022-12-26T16:49:34;5.40;99.90
12817;DHT22;6473;51.552;6.716;2022-12-26T16:52:02;5.40;99.90
12817;DHT22;6473;51.552;6.716;2022-12-26T16:54:36;5.40;99.90
12817;DHT22;6473;51.552;6.716;2022-12-26T16:57:08;5.30;99.90
12817;DHT22;6473;51.552;6.716;2022-12-26T16:59:41;5.30;99.90
12817;DHT22;6473;51.552;6.716;2022-12-26T17:02:18;5.20;99.90
12817;DHT22;6473;51.552;6.716;2022-12-26T17:04:55;5.20;99.90
12817;DHT22;6473;51.552;6.716;2022-12-26T17:07:24;5.10;99.90
12817;DHT22;6473;51.552;6.716;2022-12-26T17:09:54;4.10;99.90
12817;DHT22;6473;51.552;6.716;2022-12-26T17:12:24;5.00;99.90
12817;DHT22;6473;51.552;6.716;2022-12-26T17:14:52;5.00;99.90
12817;DHT22;6473;51.552;6.716;2022-12-26T17:17:39;5.10;99.90
12817;DHT22;6473;51.552;6.716;2022-12-26T17:20:33;5.00;99.90
12817;DHT22;6473;51.552;6.716;2022-12-26T17:23:31;5.10;99.90
12817;DHT22;6473;51.552;6.716;2022-12-26T17:26:21;5.10;99.90
12817;DHT22;6473;51.552;6.716;2022-12-26T17:28:50;5.10;99.90
12817;DHT22;6473;51.552;6.716;2022-12-26T17:31:27;5.00;99.90
12817;DHT22;6473;51.552;6.716;2022-12-26T17:33:57;4.90;99.90
12817;DHT22;6473;51.552;6.716;2022-12-26T17:36:30;4.90;99.90
12817;DHT22;6473;51.552;6.716;2022-12-26T17:39:09;4.90;99.90
12817;DHT22;6473;51.552;6.716;2022-12-26T17:41:41;4.80;99.90
12817;DHT22;6473;51.552;6.716;2022-12-26T17:44:36;4.70;99.90